createdAt,value
2018-12-12T00:01:31.907Z,101207.02
2018-12-12T00:04:03.365Z,101200.95
2018-12-12T00:06:11.508Z,101198.78
2018-12-12T00:08:17.586Z,101194.43
2018-12-12T00:10:23.866Z,101203.10
2018-12-12T00:12:31.099Z,101197.45
2018-12-12T00:14:37.839Z,101192.69
2018-12-12T00:16:44.092Z,101191.39
2018-12-12T00:21:12.886Z,101191.82
2018-12-12T00:23:18.957Z,101191.39
2018-12-12T00:25:47.677Z,101196.17
2018-12-12T00:28:16.612Z,101188.38
2018-12-12T00:30:22.872Z,101199.20
2018-12-12T00:32:28.963Z,101192.70
2018-12-12T00:34:35.302Z,101191.86
2018-12-12T00:36:42.278Z,101187.96
2018-12-12T00:38:48.401Z,101187.52
2018-12-12T00:40:55.752Z,101184.92
2018-12-12T00:43:01.993Z,101174.55
2018-12-12T00:45:08.221Z,101174.53
2018-12-12T00:49:39.867Z,101171.06
2018-12-12T00:51:46.189Z,101177.10
2018-12-12T00:53:52.553Z,101174.05
2018-12-12T00:55:58.665Z,101178.39
2018-12-12T00:58:04.847Z,101177.97
2018-12-12T01:00:33.783Z,101174.04
2018-12-12T01:03:02.447Z,101181.86
2018-12-12T01:05:08.889Z,101185.32
2018-12-12T01:07:15.183Z,101182.74
2018-12-12T01:11:44.433Z,101185.32
2018-12-12T01:13:51.145Z,101184.86
2018-12-12T01:15:57.392Z,101180.55
2018-12-12T01:18:04.001Z,101174.05
2018-12-12T01:20:10.348Z,101171.42
2018-12-12T01:22:16.412Z,101174.89
2018-12-12T01:24:45.049Z,101176.19
2018-12-12T01:27:13.478Z,101173.59
2018-12-12T01:29:19.649Z,101180.09
2018-12-12T01:31:25.794Z,101177.93
2018-12-12T01:33:31.906Z,101182.69
2018-12-12T01:35:38.479Z,101177.48
2018-12-12T01:37:45.007Z,101180.52
2018-12-12T01:39:51.946Z,101178.36
2018-12-12T01:42:20.788Z,101171.84
2018-12-12T01:44:50.000Z,101179.23
2018-12-12T01:46:57.193Z,101176.22
2018-12-12T01:49:03.337Z,101174.05
2018-12-12T01:51:10.024Z,101174.48
2018-12-12T01:53:17.005Z,101174.45
2018-12-12T01:55:23.347Z,101171.00
2018-12-12T01:57:29.447Z,101180.51
2018-12-12T01:59:35.608Z,101177.05
2018-12-12T02:01:41.769Z,101170.55
2018-12-12T02:03:48.118Z,101174.42
2018-12-12T02:05:55.180Z,101174.86
2018-12-12T02:08:01.415Z,101180.92
2018-12-12T02:10:08.523Z,101178.30
2018-12-12T02:12:14.720Z,101168.79
2018-12-12T02:14:21.190Z,101176.13
2018-12-12T02:16:27.435Z,101174.83
2018-12-12T02:18:34.721Z,101174.86
2018-12-12T02:20:40.937Z,101177.88
2018-12-12T02:22:47.036Z,101173.14
2018-12-12T02:24:53.378Z,101177.06
2018-12-12T02:29:18.085Z,101179.23
2018-12-12T02:31:24.560Z,101181.36
2018-12-12T02:33:30.936Z,101176.17
2018-12-12T02:35:37.115Z,101175.73
2018-12-12T02:37:43.287Z,101170.11
2018-12-12T02:39:49.429Z,101170.11
2018-12-12T02:42:18.482Z,101171.41
2018-12-12T02:44:46.746Z,101170.98
2018-12-12T02:46:53.229Z,101169.25
2018-12-12T02:48:59.431Z,101173.12
2018-12-12T02:51:06.450Z,101160.13
2018-12-12T02:53:13.022Z,101165.77
2018-12-12T02:55:19.386Z,101164.02
2018-12-12T02:57:25.552Z,101173.13
2018-12-12T02:59:32.370Z,101170.98
2018-12-12T03:01:38.481Z,101180.08
2018-12-12T03:03:44.853Z,101177.88
2018-12-12T03:05:52.049Z,101175.28
2018-12-12T03:07:58.261Z,101182.66
2018-12-12T03:10:04.717Z,101180.05
2018-12-12T03:12:10.923Z,101179.19
2018-12-12T03:14:17.155Z,101177.03
2018-12-12T03:16:24.058Z,101171.80
2018-12-12T03:18:30.936Z,101170.08
2018-12-12T03:20:37.218Z,101171.38
2018-12-12T03:22:43.621Z,101166.58
2018-12-12T03:24:49.715Z,101166.15
2018-12-12T03:26:55.906Z,101169.18
2018-12-12T03:29:02.514Z,101169.18
2018-12-12T03:31:08.624Z,101167.45
2018-12-12T03:33:14.979Z,101166.59
2018-12-12T03:35:21.823Z,101157.92
2018-12-12T03:37:27.893Z,101163.55
2018-12-12T03:39:34.935Z,101160.98
2018-12-12T03:41:41.221Z,101167.50
2018-12-12T03:43:47.368Z,101167.50
2018-12-12T03:45:53.531Z,101164.89
2018-12-12T03:47:59.665Z,101166.63
2018-12-12T03:50:06.257Z,101161.42
2018-12-12T03:52:13.281Z,101168.36
2018-12-12T03:54:19.340Z,101167.06
2018-12-12T03:56:25.666Z,101168.78
2018-12-12T03:58:31.775Z,101170.52
2018-12-12T04:00:37.949Z,101170.53
2018-12-12T04:02:44.258Z,101169.23
2018-12-12T04:05:13.465Z,101174.42
2018-12-12T04:07:43.306Z,101173.98
2018-12-12T04:09:49.578Z,101174.42
2018-12-12T04:11:55.814Z,101174.85
2018-12-12T04:14:02.506Z,101177.02
2018-12-12T04:16:08.589Z,101182.22
2018-12-12T04:18:14.781Z,101181.78
2018-12-12T04:20:21.173Z,101189.16
2018-12-12T04:22:27.319Z,101180.05
2018-12-12T04:24:34.149Z,101183.09
2018-12-12T04:26:41.497Z,101182.22
2018-12-12T04:28:47.686Z,101180.95
2018-12-12T04:30:54.752Z,101187.44
2018-12-12T04:33:01.003Z,101181.38
2018-12-12T04:35:07.734Z,101180.09
2018-12-12T04:37:13.872Z,101190.47
2018-12-12T04:39:20.338Z,101189.61
2018-12-12T04:41:26.486Z,101185.25
2018-12-12T04:43:33.852Z,101185.25
2018-12-12T04:45:41.403Z,101187.01
2018-12-12T04:47:47.516Z,101185.28
2018-12-12T04:49:53.682Z,101183.98
2018-12-12T04:52:00.055Z,101180.91
2018-12-12T04:54:06.190Z,101183.52
2018-12-12T04:56:14.270Z,101179.62
2018-12-12T04:58:20.398Z,101180.48
2018-12-12T05:00:26.495Z,101184.39
2018-12-12T05:02:33.038Z,101186.55
2018-12-12T05:04:39.996Z,101182.66
2018-12-12T05:06:46.220Z,101184.39
2018-12-12T05:08:52.507Z,101182.63
2018-12-12T05:10:58.540Z,101185.66
2018-12-12T05:13:04.644Z,101182.63
2018-12-12T05:15:11.042Z,101185.69
2018-12-12T05:17:17.257Z,101177.88
2018-12-12T05:19:23.977Z,101188.71
2018-12-12T05:21:30.362Z,101186.58
2018-12-12T05:23:36.615Z,101187.41
2018-12-12T05:25:42.711Z,101183.52
2018-12-12T05:27:49.069Z,101180.48
2018-12-12T05:29:55.289Z,101179.63
2018-12-12T05:32:01.590Z,101180.49
2018-12-12T05:34:07.730Z,101177.89
2018-12-12T05:36:13.819Z,101176.16
2018-12-12T05:38:20.121Z,101182.66
2018-12-12T05:40:26.634Z,101182.66
2018-12-12T05:42:34.985Z,101181.36
2018-12-12T05:44:41.267Z,101188.27
2018-12-12T05:46:47.385Z,101184.80
2018-12-12T05:48:53.468Z,101190.86
2018-12-12T05:50:59.683Z,101186.53
2018-12-12T05:55:22.158Z,101174.84
2018-12-12T05:57:28.816Z,101179.14
2018-12-12T05:59:35.268Z,101183.91
2018-12-12T06:01:41.436Z,101187.38
2018-12-12T06:03:47.545Z,101179.58
2018-12-12T06:06:15.985Z,101185.65
2018-12-12T06:08:44.965Z,101180.02
2018-12-12T06:10:51.087Z,101186.95
2018-12-12T06:12:58.000Z,101183.48
2018-12-12T06:15:04.424Z,101187.84
2018-12-12T06:17:11.880Z,101189.97
2018-12-12T06:19:18.115Z,101182.17
2018-12-12T06:21:24.477Z,101181.77
2018-12-12T06:23:30.689Z,101188.27
2018-12-12T06:25:37.479Z,101186.51
2018-12-12T06:27:43.539Z,101183.91
2018-12-12T06:29:49.679Z,101186.08
2018-12-12T06:31:55.863Z,101183.48
2018-12-12T06:34:02.172Z,101182.19
2018-12-12T06:36:08.285Z,101184.78
2018-12-12T06:38:14.546Z,101183.02
2018-12-12T06:40:20.771Z,101182.19
2018-12-12T06:42:26.831Z,101183.91
2018-12-12T06:44:33.626Z,101189.55
2018-12-12T06:46:39.997Z,101187.81
2018-12-12T06:48:46.205Z,101186.08
2018-12-12T06:50:52.506Z,101185.64
2018-12-12T06:52:59.817Z,101191.27
2018-12-12T06:55:06.387Z,101190.44
2018-12-12T06:57:12.731Z,101187.41
2018-12-12T06:59:18.819Z,101189.57
2018-12-12T07:01:47.685Z,101192.57
2018-12-12T07:04:16.151Z,101191.73
2018-12-12T07:06:22.560Z,101195.17
2018-12-12T07:08:29.667Z,101195.17
2018-12-12T07:10:35.835Z,101203.41
2018-12-12T07:12:42.075Z,101201.67
2018-12-12T07:14:48.275Z,101200.81
2018-12-12T07:16:54.617Z,101193.02
2018-12-12T07:19:01.002Z,101197.34
2018-12-12T07:21:07.144Z,101200.38
2018-12-12T07:23:14.346Z,101202.55
2018-12-12T07:25:43.621Z,101202.97
2018-12-12T07:28:12.663Z,101199.09
2018-12-12T07:30:19.089Z,101203.88
2018-12-12T07:34:43.237Z,101209.97
2018-12-12T07:36:49.362Z,101210.86
2018-12-12T07:38:55.578Z,101209.14
2018-12-12T07:41:01.990Z,101209.13
2018-12-12T07:43:41.026Z,101208.69
2018-12-12T07:46:15.019Z,101214.78
2018-12-12T07:48:23.178Z,101213.47
2018-12-12T07:50:48.106Z,101213.47
2018-12-12T07:53:11.206Z,101210.45
2018-12-12T07:55:17.314Z,101206.13
2018-12-12T07:57:23.515Z,101210.00
2018-12-12T07:59:30.005Z,101206.09
2018-12-12T08:01:36.510Z,101206.98
2018-12-12T08:03:42.689Z,101206.98
2018-12-12T08:05:48.915Z,101209.12
2018-12-12T08:07:55.047Z,101209.55
2018-12-12T08:10:03.215Z,101210.44
2018-12-12T08:12:09.895Z,101205.25
2018-12-12T08:14:16.433Z,101212.58
2018-12-12T08:16:22.790Z,101219.52
2018-12-12T08:18:29.043Z,101217.78
2018-12-12T08:20:36.256Z,101213.44
2018-12-12T08:22:42.560Z,101219.94
2018-12-12T08:24:48.766Z,101220.37
2018-12-12T08:26:55.026Z,101223.41
2018-12-12T08:29:01.173Z,101226.87
2018-12-12T08:31:07.557Z,101223.84
2018-12-12T08:33:15.040Z,101224.26
2018-12-12T08:35:21.250Z,101227.29
2018-12-12T08:37:27.401Z,101224.73
2018-12-12T08:39:33.497Z,101232.08
2018-12-12T08:41:39.741Z,101230.78
2018-12-12T08:43:46.297Z,101230.33
2018-12-12T08:45:52.613Z,101235.08
2018-12-12T08:47:58.733Z,101231.19
2018-12-12T08:50:08.328Z,101227.72
2018-12-12T08:54:32.268Z,101229.46
2018-12-12T08:56:38.816Z,101231.19
2018-12-12T08:58:45.730Z,101229.45
2018-12-12T09:00:53.077Z,101224.25
2018-12-12T09:02:59.124Z,101230.34
2018-12-12T09:05:05.621Z,101229.47
2018-12-12T09:07:11.877Z,101228.59
2018-12-12T09:11:34.639Z,101230.78
2018-12-12T09:13:42.160Z,101232.95
2018-12-12T09:15:48.294Z,101229.05
2018-12-12T09:17:55.338Z,101233.37
2018-12-12T09:20:01.528Z,101243.33
2018-12-12T09:22:08.942Z,101237.72
2018-12-12T09:24:15.373Z,101238.16
2018-12-12T09:26:21.539Z,101238.13
2018-12-12T09:28:27.613Z,101232.94
2018-12-12T09:30:37.372Z,101236.84
2018-12-12T09:32:45.675Z,101227.31
2018-12-12T09:35:15.140Z,101227.75
2018-12-12T09:37:21.330Z,101225.56
2018-12-12T09:39:27.438Z,101232.94
2018-12-12T09:41:33.828Z,101225.98
2018-12-12T09:43:40.467Z,101234.66
2018-12-12T09:45:46.857Z,101232.47
2018-12-12T09:47:53.207Z,101223.80
2018-12-12T09:52:16.789Z,101223.36
2018-12-12T09:54:25.121Z,101221.20
2018-12-12T09:56:31.365Z,101212.51
2018-12-12T09:58:37.505Z,101221.16
2018-12-12T10:00:43.759Z,101214.23
2018-12-12T10:02:50.214Z,101206.84
2018-12-12T10:04:56.582Z,101207.70
2018-12-12T10:07:02.934Z,101206.37
2018-12-12T10:09:11.762Z,101198.98
2018-12-12T10:11:18.169Z,101190.31
2018-12-12T10:13:25.261Z,101193.35
2018-12-12T10:15:31.434Z,101196.84
2018-12-12T10:17:37.569Z,101190.77
2018-12-12T10:19:43.963Z,101196.88
2018-12-12T10:21:50.786Z,101195.98
2018-12-12T10:23:56.993Z,101187.72
2018-12-12T10:26:05.704Z,101184.69
2018-12-12T10:28:12.162Z,101185.53
2018-12-12T10:30:18.408Z,101186.37
2018-12-12T10:32:24.676Z,101188.94
2018-12-12T10:34:30.905Z,101189.80
2018-12-12T10:38:54.930Z,101188.02
2018-12-12T10:41:01.044Z,101189.72
2018-12-12T10:43:07.856Z,101187.05
2018-12-12T10:45:14.311Z,101193.09
2018-12-12T10:47:20.513Z,101186.98
2018-12-12T10:49:26.983Z,101186.47
2018-12-12T10:51:33.107Z,101182.96
2018-12-12T10:53:39.245Z,101180.75
2018-12-12T10:55:45.321Z,101187.22
2018-12-12T10:57:51.498Z,101187.17
2018-12-12T10:59:57.662Z,101178.93
2018-12-12T11:02:10.373Z,101179.39
2018-12-12T11:04:18.886Z,101178.92
2018-12-12T11:06:24.984Z,101171.11
2018-12-12T11:08:32.454Z,101174.57
2018-12-12T11:10:38.741Z,101173.66
2018-12-12T11:12:44.981Z,101171.45
2018-12-12T11:17:08.123Z,101162.76
2018-12-12T11:19:14.440Z,101163.63
2018-12-12T11:21:21.686Z,101151.91
2018-12-12T11:23:28.013Z,101150.17
2018-12-12T11:25:34.330Z,101152.34
2018-12-12T11:27:41.115Z,101143.23
2018-12-12T11:29:48.072Z,101143.23
2018-12-12T11:31:54.314Z,101138.02
2018-12-12T11:34:00.546Z,101142.84
2018-12-12T11:36:07.150Z,101140.67
2018-12-12T11:38:13.481Z,101135.46
2018-12-12T11:40:19.770Z,101131.52
2018-12-12T11:42:28.044Z,101129.77
2018-12-12T11:44:34.224Z,101128.03
2018-12-12T11:46:41.691Z,101129.28
2018-12-12T11:48:48.029Z,101130.97
2018-12-12T11:50:54.158Z,101127.48
2018-12-12T11:53:00.342Z,101123.92
2018-12-12T11:55:06.908Z,101127.33
2018-12-12T11:57:13.969Z,101128.58
2018-12-12T11:59:20.096Z,101122.43
2018-12-12T12:01:26.420Z,101121.93
2018-12-12T12:03:32.706Z,101112.75
2018-12-12T12:05:39.105Z,101107.47
2018-12-12T12:07:46.129Z,101102.68
2018-12-12T12:09:52.389Z,101105.98
2018-12-12T12:12:00.000Z,101103.44
2018-12-12T12:14:08.452Z,101096.50
2018-12-12T12:16:15.062Z,101097.84
2018-12-12T12:18:21.241Z,101094.37
2018-12-12T12:20:28.264Z,101097.86
2018-12-12T12:22:34.718Z,101100.47
2018-12-12T12:24:40.930Z,101092.21
2018-12-12T12:26:47.304Z,101098.66
2018-12-12T12:28:54.088Z,101086.43
2018-12-12T12:31:00.269Z,101085.53
2018-12-12T12:33:06.597Z,101085.03
2018-12-12T12:35:14.323Z,101081.05
2018-12-12T12:37:20.668Z,101071.86
2018-12-12T12:39:28.066Z,101075.71
2018-12-12T12:41:34.315Z,101074.34
2018-12-12T12:43:40.502Z,101073.83
2018-12-12T12:45:47.335Z,101070.75
2018-12-12T12:47:53.957Z,101071.56
2018-12-12T12:50:00.049Z,101064.59
2018-12-12T12:52:06.684Z,101063.36
2018-12-12T12:54:13.132Z,101063.86
2018-12-12T12:58:37.821Z,101061.34
2018-12-12T13:00:44.298Z,101067.86
2018-12-12T13:02:50.550Z,101061.30
2018-12-12T13:04:56.727Z,101048.76
2018-12-12T13:07:02.943Z,101054.75
2018-12-12T13:09:09.591Z,101048.22
2018-12-12T13:11:15.756Z,101054.26
2018-12-12T13:13:22.389Z,101051.61
2018-12-12T13:15:29.122Z,101054.59
2018-12-12T13:17:35.293Z,101047.63
2018-12-12T13:19:41.506Z,101051.48
2018-12-12T13:21:48.714Z,101050.59
2018-12-12T13:23:55.010Z,101051.02
2018-12-12T13:26:01.580Z,101048.84
2018-12-12T13:28:07.699Z,101050.97
2018-12-12T13:30:13.977Z,101055.31
2018-12-12T13:32:20.945Z,101049.23
2018-12-12T13:34:27.068Z,101051.40
2018-12-12T13:36:33.290Z,101046.63
2018-12-12T13:38:39.679Z,101042.70
2018-12-12T13:40:45.754Z,101045.31
2018-12-12T13:42:52.083Z,101044.06
2018-12-12T13:44:58.526Z,101038.41
2018-12-12T13:47:05.251Z,101041.46
2018-12-12T13:49:12.762Z,101034.95
2018-12-12T13:51:19.018Z,101039.75
2018-12-12T13:53:25.647Z,101040.17
2018-12-12T13:55:31.853Z,101030.67
2018-12-12T13:57:39.264Z,101031.20
2018-12-12T13:59:45.831Z,101033.02
2018-12-12T14:01:52.186Z,101028.75
2018-12-12T14:03:58.409Z,101032.30
2018-12-12T14:06:05.317Z,101028.45
2018-12-12T14:08:11.473Z,101025.45
2018-12-12T14:10:17.678Z,101029.40
2018-12-12T14:12:23.886Z,101029.40
2018-12-12T14:14:30.176Z,101031.57
2018-12-12T14:16:36.470Z,101022.84
2018-12-12T14:18:43.483Z,101031.97
2018-12-12T14:20:49.798Z,101029.36
2018-12-12T14:22:55.991Z,101028.04
2018-12-12T14:27:19.425Z,101031.06
2018-12-12T14:29:25.783Z,101034.48
2018-12-12T14:31:32.053Z,101029.25
2018-12-12T14:33:38.605Z,101026.20
2018-12-12T14:35:44.756Z,101029.20
2018-12-12T14:40:09.373Z,101027.43
2018-12-12T14:42:16.119Z,101026.58
2018-12-12T14:44:22.455Z,101021.88
2018-12-12T14:46:28.704Z,101031.36
2018-12-12T14:48:34.877Z,101030.05
2018-12-12T14:50:41.622Z,101027.44
2018-12-12T14:52:47.829Z,101028.75
2018-12-12T14:54:54.607Z,101025.27
2018-12-12T14:59:19.399Z,101028.32
2018-12-12T15:01:26.627Z,101027.94
2018-12-12T15:03:33.476Z,101027.53
2018-12-12T15:05:41.445Z,101012.45
2018-12-12T15:07:48.041Z,101022.84
2018-12-12T15:09:54.470Z,101023.33
2018-12-12T15:12:01.882Z,101019.05
2018-12-12T15:14:09.366Z,101022.55
2018-12-12T15:16:15.852Z,101021.74
2018-12-12T15:18:22.109Z,101017.89
2018-12-12T15:20:28.252Z,101018.34
2018-12-12T15:22:34.558Z,101020.95
2018-12-12T15:24:40.851Z,101016.18
2018-12-12T15:26:47.145Z,101019.66
2018-12-12T15:28:54.232Z,101020.95
2018-12-12T15:31:00.524Z,101021.39
2018-12-12T15:33:08.625Z,101021.83
2018-12-12T15:35:14.866Z,101014.88
2018-12-12T15:37:21.343Z,101024.05
2018-12-12T15:39:27.526Z,101019.27
2018-12-12T15:41:34.338Z,101019.72
2018-12-12T15:43:40.786Z,101017.17
2018-12-12T15:45:47.147Z,101019.80
2018-12-12T15:47:53.675Z,101023.77
2018-12-12T15:50:00.715Z,101013.39
2018-12-12T15:52:07.365Z,101012.53
2018-12-12T15:54:13.545Z,101011.23
2018-12-12T15:56:19.903Z,101015.59
2018-12-12T15:58:26.243Z,101008.20
2018-12-12T16:00:33.790Z,101012.98
2018-12-12T16:02:40.584Z,101007.34
2018-12-12T16:04:49.140Z,101004.73
2018-12-12T16:06:55.536Z,101003.91
2018-12-12T16:09:01.928Z,101005.59
2018-12-12T16:11:10.233Z,101008.25
2018-12-12T16:13:16.355Z,101006.52
2018-12-12T16:15:22.683Z,101005.67
2018-12-12T16:17:28.919Z,101008.27
2018-12-12T16:19:35.390Z,101006.11
2018-12-12T16:21:41.792Z,101009.20
2018-12-12T16:23:48.119Z,101004.92
2018-12-12T16:25:55.820Z,101006.67
2018-12-12T16:28:02.199Z,101009.76
2018-12-12T16:30:09.473Z,101008.90
2018-12-12T16:32:15.873Z,101004.58
2018-12-12T16:34:23.085Z,101008.09
2018-12-12T16:36:29.861Z,101005.50
2018-12-12T16:38:36.178Z,101006.42
2018-12-12T16:46:43.359Z,101000.59
2018-12-12T16:48:49.857Z,101013.15
2018-12-12T16:50:56.129Z,101012.75
2018-12-12T16:53:02.667Z,101006.66
2018-12-12T16:55:09.350Z,101006.19
2018-12-12T16:57:16.103Z,101002.95
2018-12-12T16:59:23.248Z,101004.31
2018-12-12T17:01:29.713Z,100994.77
2018-12-12T17:03:36.813Z,100996.50
2018-12-12T17:05:43.763Z,100996.50
2018-12-12T17:07:49.999Z,100993.90
2018-12-12T17:09:56.428Z,100995.20
2018-12-12T17:12:16.770Z,100994.34
2018-12-12T17:14:33.493Z,100996.52
2018-12-12T17:16:40.975Z,100998.69
2018-12-12T17:18:47.355Z,100991.36
2018-12-12T17:20:54.348Z,100991.80
2018-12-12T17:23:00.788Z,100991.36
2018-12-12T17:25:07.222Z,100991.36
2018-12-12T17:27:13.495Z,100991.80
2018-12-12T17:29:19.726Z,100994.41
2018-12-12T17:31:25.948Z,100990.92
2018-12-12T17:33:32.094Z,100986.58
2018-12-12T17:35:39.090Z,100985.28
2018-12-12T17:37:47.630Z,100983.55
2018-12-12T17:39:53.786Z,100984.86
2018-12-12T17:42:00.086Z,100979.27
2018-12-12T17:44:07.411Z,100979.28
2018-12-12T17:46:14.572Z,100981.48
2018-12-12T17:48:20.707Z,100984.09
2018-12-12T17:50:26.968Z,100984.53
2018-12-12T17:52:33.910Z,100986.70
2018-12-12T17:54:42.197Z,100991.80
2018-12-12T17:56:49.874Z,100990.55
2018-12-12T17:58:56.085Z,100979.71
2018-12-12T18:01:02.539Z,100986.22
2018-12-12T18:03:11.293Z,100979.75
2018-12-12T18:05:35.970Z,100988.88
2018-12-12T18:07:44.148Z,100982.34
2018-12-12T18:09:52.866Z,100984.12
2018-12-12T18:12:02.047Z,100982.39
2018-12-12T18:14:09.440Z,100983.27
2018-12-12T18:16:19.150Z,100983.27
2018-12-12T18:18:27.398Z,100979.80
2018-12-12T18:20:34.909Z,100977.62
2018-12-12T18:22:43.274Z,100978.48
2018-12-12T18:24:51.659Z,100984.99
2018-12-12T18:26:57.838Z,100979.36
2018-12-12T18:29:04.809Z,100979.78
2018-12-12T18:31:17.922Z,100979.80
2018-12-12T18:33:29.647Z,100986.30
2018-12-12T18:37:57.709Z,100973.34
2018-12-12T18:40:04.243Z,100972.48
2018-12-12T18:42:12.459Z,100969.88
2018-12-12T18:44:32.643Z,100967.27
2018-12-12T18:46:38.843Z,100985.05
2018-12-12T18:48:45.151Z,100977.25
2018-12-12T18:50:53.426Z,100976.82
2018-12-12T18:53:09.504Z,100971.23
2018-12-12T18:55:23.539Z,100977.30
2018-12-12T18:57:30.707Z,100972.97
2018-12-12T18:59:37.459Z,100975.13
2018-12-12T19:01:43.880Z,100975.52
2018-12-12T19:03:50.357Z,100974.64
2018-12-12T19:05:56.691Z,100976.77
2018-12-12T19:08:02.967Z,100971.97
2018-12-12T19:10:17.612Z,100975.44
2018-12-12T19:12:31.337Z,100978.44
2018-12-12T19:14:39.792Z,100972.81
2018-12-12T19:16:46.781Z,100972.77
2018-12-12T19:18:53.205Z,100971.44
2018-12-12T19:21:00.211Z,100970.97
2018-12-12T19:23:07.414Z,100967.04
2018-12-12T19:25:25.129Z,100964.83
2018-12-12T19:27:38.827Z,100970.47
2018-12-12T19:29:45.028Z,100967.86
2018-12-12T19:31:51.239Z,100972.64
2018-12-12T19:33:57.413Z,100971.81
2018-12-12T19:36:03.668Z,100964.45
2018-12-12T19:38:17.491Z,100967.98
2018-12-12T19:40:31.360Z,100962.83
2018-12-12T19:42:37.602Z,100955.86
2018-12-12T19:44:43.892Z,100959.82
2018-12-12T19:46:50.639Z,100959.39
2018-12-12T19:48:56.880Z,100958.09
2018-12-12T19:51:03.222Z,100958.53
2018-12-12T19:53:16.759Z,100965.91
2018-12-12T19:55:30.844Z,100957.29
2018-12-12T19:57:37.424Z,100952.56
2018-12-12T19:59:43.955Z,100957.35
2018-12-12T20:01:50.854Z,100948.30
2018-12-12T20:03:57.364Z,100947.48
2018-12-12T20:06:03.927Z,100947.06
2018-12-12T20:08:10.268Z,100944.94
2018-12-12T20:10:16.609Z,100940.61
2018-12-12T20:12:23.336Z,100946.73
2018-12-12T20:14:29.612Z,100943.27
2018-12-12T20:16:35.904Z,100943.75
2018-12-12T20:18:42.323Z,100943.33
2018-12-12T20:20:48.947Z,100935.56
2018-12-12T20:22:55.267Z,100938.17
2018-12-12T20:25:02.823Z,100929.98
2018-12-12T20:27:16.908Z,100932.59
2018-12-12T20:29:30.849Z,100936.97
2018-12-12T20:31:37.365Z,100936.55
2018-12-12T20:33:43.893Z,100933.98
2018-12-12T20:35:51.351Z,100936.59
2018-12-12T20:37:58.350Z,100933.13
2018-12-12T20:40:05.460Z,100935.34
2018-12-12T20:42:19.608Z,100934.48
2018-12-12T20:44:34.486Z,100937.09
2018-12-12T20:46:41.873Z,100932.36
2018-12-12T20:48:48.665Z,100931.50
2018-12-12T20:50:55.493Z,100935.44
2018-12-12T20:53:07.989Z,100940.22
2018-12-12T20:55:17.520Z,100932.45
2018-12-12T20:57:24.472Z,100940.69
2018-12-12T20:59:32.109Z,100942.00
2018-12-12T21:01:38.479Z,100940.30
2018-12-12T21:03:44.943Z,100935.97
2018-12-12T21:05:54.569Z,100932.94
2018-12-12T21:07:59.887Z,100928.65
2018-12-12T21:10:06.793Z,100932.55
2018-12-12T21:12:12.960Z,100923.49
2018-12-12T21:14:19.764Z,100921.37
2018-12-12T21:16:26.697Z,100919.64
2018-12-12T21:18:32.877Z,100924.45
2018-12-12T21:20:39.991Z,100918.39
2018-12-12T21:22:46.236Z,100922.75
2018-12-12T21:24:52.458Z,100916.70
2018-12-12T21:27:00.701Z,100921.06
2018-12-12T21:29:06.988Z,100925.00
2018-12-12T21:31:13.449Z,100919.38
2018-12-12T21:33:20.757Z,100922.88
2018-12-12T21:35:27.229Z,100918.58
2018-12-12T21:37:33.813Z,100919.92
2018-12-12T21:39:40.071Z,100916.02
2018-12-12T21:41:48.743Z,100917.79
2018-12-12T21:43:55.318Z,100922.16
2018-12-12T21:46:03.243Z,100916.99
2018-12-12T21:48:09.931Z,100915.30
2018-12-12T21:50:17.516Z,100917.45
2018-12-12T21:52:24.970Z,100913.19
2018-12-12T21:54:31.393Z,100916.69
2018-12-12T21:56:37.692Z,100911.05
2018-12-12T21:58:44.809Z,100915.84
2018-12-12T22:00:51.111Z,100907.65
2018-12-12T22:02:57.344Z,100913.27
2018-12-12T22:05:03.480Z,100910.70
2018-12-12T22:07:10.051Z,100915.47
2018-12-12T22:09:16.570Z,100915.46
2018-12-12T22:11:22.945Z,100911.16
2018-12-12T22:13:29.177Z,100908.56
2018-12-12T22:15:36.137Z,100903.38
2018-12-12T22:17:44.168Z,100905.13
2018-12-12T22:19:52.154Z,100904.73
2018-12-12T22:21:58.472Z,100907.75
2018-12-12T22:24:06.032Z,100911.20
2018-12-12T22:26:13.013Z,100903.02
2018-12-12T22:28:20.000Z,100910.80
2018-12-12T22:30:26.821Z,100911.23
2018-12-12T22:32:33.764Z,100909.93
2018-12-12T22:34:39.903Z,100910.83
2018-12-12T22:36:47.933Z,100902.61
2018-12-12T22:38:54.419Z,100911.25
2018-12-12T22:41:00.847Z,100910.81
2018-12-12T22:43:07.021Z,100908.66
2018-12-12T22:45:23.896Z,100907.38
2018-12-12T22:47:32.818Z,100910.00
2018-12-12T22:49:41.375Z,100913.02
2018-12-12T22:51:47.917Z,100910.44
2018-12-12T22:53:54.284Z,100913.05
2018-12-12T22:56:00.851Z,100907.86
2018-12-12T22:58:07.132Z,100909.14
2018-12-12T23:00:18.725Z,100904.84
2018-12-12T23:02:27.863Z,100911.75
2018-12-12T23:04:34.480Z,100902.26
2018-12-12T23:06:40.745Z,100906.14
2018-12-12T23:08:47.376Z,100901.84
2018-12-12T23:10:54.540Z,100896.23
2018-12-12T23:13:00.853Z,100894.95
2018-12-12T23:15:07.876Z,100888.03
2018-12-12T23:17:14.670Z,100888.91
2018-12-12T23:19:21.586Z,100890.19
2018-12-12T23:21:28.141Z,100888.92
2018-12-12T23:23:34.287Z,100884.58
2018-12-12T23:25:44.545Z,100885.04
2018-12-12T23:27:50.752Z,100880.72
2018-12-12T23:29:58.432Z,100882.00
2018-12-12T23:32:05.288Z,100881.16
2018-12-12T23:34:11.501Z,100872.95
2018-12-12T23:36:19.096Z,100875.56
2018-12-12T23:38:26.432Z,100879.44
2018-12-12T23:40:33.393Z,100878.14
2018-12-12T23:42:40.634Z,100878.56
2018-12-12T23:44:46.928Z,100866.92
2018-12-12T23:46:53.147Z,100865.20
2018-12-12T23:49:00.578Z,100865.63
2018-12-12T23:51:06.780Z,100866.92
2018-12-12T23:53:13.954Z,100863.47
2018-12-12T23:55:20.153Z,100863.02
2018-12-12T23:57:26.234Z,100863.03
2018-12-12T23:59:33.469Z,100866.49
